VK4VP-5 Buderim QLD AU current weather conditions

sailwx.info

Wind from 320 at 7 knots gusting 14

Air temperature 19.4° C
Dewpoint 11.0° C

Last reported at 2014-Jul-28 23:42 UTC.
Time now 2014-Jul-29 00:43 UTC

Location: S 26°42' E 153°05'.
View on Google Maps.

See reports from other nearby stations

  
Tides and Currents Weather Stations Pressure Air Temp Water Temp Dewpoint Dewpoint Depression Visibility Wind Speed Wind Dir Waves Ship Positions
date/time (UTC)wind fromknots sea level pressurealtimeterstation pressurevisibilityair tempwater tempwave heightnotes
2014-Jul-28 23:42 320 7 gusting 14 19.4
2014-Jul-28 23:32 311 6 gusting 15 18.9
2014-Jul-28 23:22 316 6 gusting 14 18.9
2014-Jul-28 23:12 326 5 gusting 12 18.9
2014-Jul-28 23:02 325 5 gusting 9 18.9
2014-Jul-28 22:52 316 5 gusting 11 18.3
2014-Jul-28 22:42 322 6 gusting 15 18.3
2014-Jul-28 22:32 321 6 gusting 12 17.8
2014-Jul-28 22:22 322 5 gusting 10 17.8
2014-Jul-28 22:12 315 6 gusting 11 17.8
2014-Jul-28 22:02 318 5 gusting 10 17.8
2014-Jul-28 21:52 314 4 gusting 10 17.2
2014-Jul-28 21:42 304 5 gusting 11 16.7
2014-Jul-28 21:32 297 2 gusting 10 15.0
2014-Jul-28 21:22 294 0 gusting 3 13.3
2014-Jul-28 21:12 295 11.7
2014-Jul-28 21:02 294 11.7
2014-Jul-28 20:52 294 11.1
2014-Jul-28 20:42 294 11.1
2014-Jul-28 20:32 294 11.7
2014-Jul-28 20:22 294 12.2
2014-Jul-28 20:12 294 12.8
2014-Jul-28 20:02 293 0 gusting 6 13.9
2014-Jul-28 19:52 291 15.0
2014-Jul-28 19:42 291 1 gusting 8 15.6
2014-Jul-28 19:32 291 1 gusting 7 15.6
2014-Jul-28 19:22 299 3 gusting 8 16.1
2014-Jul-28 19:12 298 4 gusting 8 16.1
2014-Jul-28 19:02 303 4 gusting 9 15.6
2014-Jul-28 18:52 303 3 gusting 7 15.6
2014-Jul-28 18:42 306 1 gusting 5 15.6
2014-Jul-28 18:32 307 3 gusting 8 15.6
2014-Jul-28 18:22 311 3 gusting 8 16.1
2014-Jul-28 18:12 312 3 gusting 7 16.1
2014-Jul-28 18:02 313 3 gusting 8 16.1
2014-Jul-28 17:52 308 5 gusting 9 16.1
2014-Jul-28 17:42 309 4 gusting 9 16.1
2014-Jul-28 17:32 310 5 gusting 10 16.7
2014-Jul-28 17:22 307 3 gusting 8 16.1
2014-Jul-28 17:12 302 4 gusting 8 16.1
2014-Jul-28 17:02 308 3 gusting 8 16.7
2014-Jul-28 16:52 313 4 gusting 9 16.7
2014-Jul-28 16:42 313 4 gusting 9 16.7
2014-Jul-28 16:32 317 6 gusting 11 16.7
2014-Jul-28 16:22 305 6 gusting 13 16.7
2014-Jul-28 16:12 308 5 gusting 11 16.7
2014-Jul-28 16:02 308 4 gusting 9 16.7
2014-Jul-28 15:52 307 4 gusting 11 16.7
2014-Jul-28 15:42 301 3 gusting 8 15.6
2014-Jul-28 15:32 314 3 gusting 8 14.4
2014-Jul-28 15:22 085 12.2
2014-Jul-28 15:12 087 11.1
2014-Jul-28 15:04 087 11.1
2014-Jul-28 14:52 087 11.1
2014-Jul-28 14:42 10.6
2014-Jul-28 14:32 10.6
2014-Jul-28 14:22 10.6
2014-Jul-28 14:12 11.1
2014-Jul-28 14:02 11.1
2014-Jul-28 13:52 11.1
2014-Jul-28 13:42 11.1
2014-Jul-28 13:32 11.1
2014-Jul-28 13:22 11.7
2014-Jul-28 13:12 087 11.7
2014-Jul-28 13:02 11.7
2014-Jul-28 12:52 11.7
2014-Jul-28 12:42 11.7
2014-Jul-28 12:32 11.7
2014-Jul-28 12:22 11.7
2014-Jul-28 12:12 11.7
2014-Jul-28 12:02 12.2
2014-Jul-28 11:52 12.2
2014-Jul-28 11:42 12.8
2014-Jul-28 11:32 12.8
2014-Jul-28 11:22 13.3
2014-Jul-28 11:12 13.3
2014-Jul-28 11:02 087 13.3
2014-Jul-28 10:52 088 13.3
2014-Jul-28 10:42 087 0 gusting 1 13.3
2014-Jul-28 10:32 13.3
2014-Jul-28 10:22 13.3
2014-Jul-28 10:12 13.3
2014-Jul-28 10:02 087 13.3
2014-Jul-28 09:52 088 13.9
2014-Jul-28 09:42 13.9
2014-Jul-28 09:32 14.4
2014-Jul-28 09:22 14.4
2014-Jul-28 09:12 15.0
2014-Jul-28 09:02 15.6
2014-Jul-28 08:52 087 16.1
2014-Jul-28 08:42 16.7
2014-Jul-28 08:32 087 17.2
2014-Jul-28 08:22 087 17.2
2014-Jul-28 08:12 088 17.8
2014-Jul-28 08:02 088 17.8
2014-Jul-28 07:52 087 0 gusting 5 18.3
2014-Jul-28 07:42 087 0 gusting 3 18.3
2014-Jul-28 07:32 090 1 gusting 5 18.3
2014-Jul-28 07:22 062 1 gusting 6 18.3
2014-Jul-28 07:12 014 1 gusting 3 18.3
2014-Jul-28 07:02 025 1 gusting 8 18.9
2014-Jul-28 06:52 033 2 gusting 8 19.4
2014-Jul-28 06:42 031 1 gusting 7 19.4
2014-Jul-28 06:32 030 0 gusting 6 19.4
2014-Jul-28 06:22 033 2 gusting 8 19.4
2014-Jul-28 06:12 035 1 gusting 7 20.0
2014-Jul-28 06:02 044 1 gusting 6 20.0
2014-Jul-28 05:52 062 2 gusting 7 20.0
2014-Jul-28 05:42 057 3 gusting 9 20.0
2014-Jul-28 05:32 035 3 gusting 8 20.0
2014-Jul-28 05:22 037 3 gusting 8 20.0
2014-Jul-28 05:12 034 4 gusting 9 20.0
2014-Jul-28 05:02 034 3 gusting 8 20.0
2014-Jul-28 04:52 049 4 gusting 9 20.0
2014-Jul-28 04:42 040 5 gusting 11 20.0
2014-Jul-28 04:32 015 5 gusting 9 20.6
2014-Jul-28 04:22 028 3 gusting 9 20.6
2014-Jul-28 04:12 025 4 gusting 9 20.6
2014-Jul-28 04:02 040 3 gusting 8 20.6
2014-Jul-28 03:52 029 4 gusting 9 20.6
2014-Jul-28 03:42 022 3 gusting 9 21.1
2014-Jul-28 03:32 351 3 gusting 8 21.1
2014-Jul-28 03:22 045 3 gusting 9 21.1
2014-Jul-28 03:12 021 1 gusting 6 21.1
2014-Jul-28 03:02 014 3 gusting 8 21.1
2014-Jul-28 02:52 327 2 gusting 9 21.1
2014-Jul-28 02:42 352 2 gusting 8 21.1
2014-Jul-28 02:32 016 1 gusting 8 21.1
2014-Jul-28 02:22 304 0 gusting 6 21.1
2014-Jul-28 02:12 284 0 gusting 3 20.6
2014-Jul-28 02:02 295 1 gusting 8 20.0
2014-Jul-28 01:52 334 3 gusting 8 20.6
2014-Jul-28 01:42 344 4 gusting 13 21.1
2014-Jul-28 01:32 009 4 gusting 10 21.1
2014-Jul-28 01:22 016 4 gusting 11 21.1
2014-Jul-28 01:12 017 1 gusting 8 21.1
2014-Jul-28 01:02 039 0 gusting 5 20.6
2014-Jul-28 00:52 332 1 gusting 8 20.0
2014-Jul-28 00:42 352 2 gusting 8 20.0
2014-Jul-28 00:32 013 2 gusting 6 20.6
2014-Jul-28 00:22 069 1 gusting 7 20.0
2014-Jul-28 00:12 107 1 gusting 5 20.0
2014-Jul-28 00:02 164 19.4
2014-Jul-27 23:52 164 19.4
2014-Jul-27 23:42 164 18.9
2014-Jul-27 23:32 164 18.3
2014-Jul-27 23:27 164 18.3
2014-Jul-27 23:22 164 18.3
2014-Jul-27 23:12 164 17.8
2014-Jul-27 23:02 164 17.2
2014-Jul-27 22:52 153 0 gusting 5 16.7
2014-Jul-27 22:42 100 16.1
2014-Jul-27 22:32 101 0 gusting 2 15.0
2014-Jul-27 22:22 101 14.4
2014-Jul-27 22:12 13.3
2014-Jul-27 22:02 12.2
2014-Jul-27 21:52 11.7
2014-Jul-27 21:42 11.1
2014-Jul-27 21:32 10.0
2014-Jul-27 21:19 9.4
2014-Jul-27 21:09 8.9
2014-Jul-27 21:02 8.9
2014-Jul-27 20:52 8.9
2014-Jul-27 20:42 8.9
2014-Jul-27 20:32 101 8.9
2014-Jul-27 20:22 8.9
2014-Jul-27 20:19 8.9
2014-Jul-27 20:12 8.9
2014-Jul-27 20:02 8.9
2014-Jul-27 19:52 8.9
2014-Jul-27 19:42 8.9
2014-Jul-27 19:39 8.9
2014-Jul-27 19:32 8.9
2014-Jul-27 19:22 101 9.4
2014-Jul-27 19:19 101 9.4
2014-Jul-27 19:12 9.4
2014-Jul-27 19:09 9.4
2014-Jul-27 19:02 9.4
2014-Jul-27 18:59 101 9.4
2014-Jul-27 18:52 100 9.4
2014-Jul-27 18:42 9.4
2014-Jul-27 18:32 9.4
2014-Jul-27 18:29 9.4
2014-Jul-27 18:22 101 9.4
2014-Jul-27 18:19 101 9.4
2014-Jul-27 18:12 100 9.4
2014-Jul-27 18:02 9.4
2014-Jul-27 17:52 101 9.4
2014-Jul-27 17:42 101 9.4
2014-Jul-27 17:39 101 9.4
2014-Jul-27 17:32 9.4
2014-Jul-27 17:22 9.4
2014-Jul-27 17:12 9.4
2014-Jul-27 17:10 9.4
2014-Jul-27 17:02 9.4
2014-Jul-27 16:52 9.4
2014-Jul-27 16:42 9.4
2014-Jul-27 16:32 9.4
2014-Jul-27 16:22 10.0
2014-Jul-27 16:19 10.0
2014-Jul-27 16:12 10.0
2014-Jul-27 16:02 10.0
2014-Jul-27 15:52 10.0
2014-Jul-27 15:42 10.0
2014-Jul-27 15:39 10.6
2014-Jul-27 15:32 10.6
2014-Jul-27 15:23 10.6
2014-Jul-27 15:19 10.6
2014-Jul-27 15:12 10.6
2014-Jul-27 15:02 10.6
2014-Jul-27 14:52 10.6
2014-Jul-27 14:42 10.6
2014-Jul-27 14:32 10.6
2014-Jul-27 14:22 10.6
2014-Jul-27 14:12 10.6
2014-Jul-27 14:02 10.6
2014-Jul-27 13:59 10.6
2014-Jul-27 13:52 10.6
2014-Jul-27 13:42 11.1
2014-Jul-27 13:39 11.1
2014-Jul-27 13:32 11.1
2014-Jul-27 13:22 11.1
2014-Jul-27 13:12 11.1
2014-Jul-27 13:09 11.1
2014-Jul-27 13:02 11.1
2014-Jul-27 12:52 11.1
2014-Jul-27 12:42 101 11.1
2014-Jul-27 12:39 101 11.1
2014-Jul-27 12:32 101 11.7
2014-Jul-27 12:29 11.7
2014-Jul-27 12:22 101 11.7
2014-Jul-27 12:12 11.7
2014-Jul-27 12:02 11.7
2014-Jul-27 11:52 101 11.7
2014-Jul-27 11:49 101 11.7
2014-Jul-27 11:42 101 11.7
2014-Jul-27 11:39 100 11.7
2014-Jul-27 11:32 101 11.7
2014-Jul-27 11:29 101 11.7
2014-Jul-27 11:22 12.2
2014-Jul-27 11:12 100 12.2
2014-Jul-27 11:02 101 12.2
2014-Jul-27 10:52 12.2
2014-Jul-27 10:49 12.2
2014-Jul-27 10:42 12.8
2014-Jul-27 10:32 12.8
2014-Jul-27 10:22 12.8
2014-Jul-27 10:12 101 12.8
2014-Jul-27 10:09 13.3
2014-Jul-27 10:02 13.3
2014-Jul-27 09:52 13.3
2014-Jul-27 09:42 13.3
2014-Jul-27 09:32 13.9
2014-Jul-27 09:22 13.9
2014-Jul-27 09:12 14.4
2014-Jul-27 09:02 14.4
2014-Jul-27 08:52 15.0
2014-Jul-27 08:42 15.6
2014-Jul-27 08:32 15.6
2014-Jul-27 08:22 16.1
2014-Jul-27 08:19 16.1
2014-Jul-27 08:12 16.7
2014-Jul-27 08:02 17.2
2014-Jul-27 07:52 17.8
2014-Jul-27 07:42 18.3
2014-Jul-27 07:32 101 18.3
2014-Jul-27 07:29 101 18.3
2014-Jul-27 07:22 101 18.9
2014-Jul-27 07:19 101 18.9
2014-Jul-27 07:12 18.9
2014-Jul-27 07:09 101 19.4
2014-Jul-27 07:02 101 19.4
2014-Jul-27 06:52 115 20.0
2014-Jul-27 06:42 123 20.0
2014-Jul-27 06:39 134 20.0
2014-Jul-27 06:32 153 0 gusting 6 20.6
2014-Jul-27 06:22 137 1 gusting 7 20.6
2014-Jul-27 06:12 146 1 gusting 8 20.6
2014-Jul-27 06:02 154 2 gusting 8 20.6
2014-Jul-27 05:52 168 4 gusting 8 20.6
2014-Jul-27 05:42 138 1 gusting 8 20.6
2014-Jul-27 05:32 132 2 gusting 8 20.6
2014-Jul-27 05:22 148 1 gusting 8 21.1
2014-Jul-27 05:12 163 2 gusting 8 21.1
2014-Jul-27 05:02 137 2 gusting 8 21.1
2014-Jul-27 04:52 162 2 gusting 7 21.1
2014-Jul-27 04:42 165 5 gusting 11 20.6
2014-Jul-27 04:32 153 1 gusting 6 21.7
2014-Jul-27 04:22 138 1 gusting 7 21.7
2014-Jul-27 04:12 127 1 gusting 6 21.1
2014-Jul-27 04:02 149 1 gusting 8 21.1
2014-Jul-27 03:52 156 2 gusting 9 21.1
2014-Jul-27 03:42 126 1 gusting 8 21.7
2014-Jul-27 03:32 152 1 gusting 7 21.7
2014-Jul-27 03:22 203 1 gusting 6 22.2
2014-Jul-27 03:12 202 4 gusting 11 22.2
2014-Jul-27 03:02 214 6 gusting 13 21.7
2014-Jul-27 02:52 226 5 gusting 14 21.7
2014-Jul-27 02:42 223 5 gusting 10 21.7
2014-Jul-27 02:32 236 3 gusting 9 22.2
2014-Jul-27 02:22 224 6 gusting 13 21.7
2014-Jul-27 02:12 229 4 gusting 10 21.7
2014-Jul-27 02:02 220 5 gusting 11 21.1
2014-Jul-27 01:52 216 6 gusting 12 21.1
2014-Jul-27 01:42 205 6 gusting 17 21.1
2014-Jul-27 01:32 199 6 gusting 16 21.1
2014-Jul-27 01:22 246 5 gusting 13 21.1
2014-Jul-27 01:12 244 6 gusting 14 21.1
2014-Jul-27 01:02 211 5 gusting 12 21.1
2014-Jul-27 00:52 206 5 gusting 16 20.6
2014-Jul-27 00:42 212 6 gusting 16 20.6
2014-Jul-27 00:32 203 6 gusting 18 20.6
2014-Jul-27 00:22 233 5 gusting 17 20.6
2014-Jul-27 00:12 219 2 gusting 8 20.6
2014-Jul-27 00:02 203 4 gusting 9 20.0